createdAt,value
2022-10-11T00:00:43.973Z,43.10
2022-10-11T00:03:31.303Z,53.10
2022-10-11T00:05:59.115Z,61.70
2022-10-11T00:08:26.888Z,33.80
2022-10-11T00:11:00.002Z,45.70
2022-10-11T00:13:28.887Z,40.20
2022-10-11T00:15:57.743Z,49.70
2022-10-11T00:18:26.710Z,37.70
2022-10-11T00:21:07.147Z,43.00
2022-10-11T00:23:35.584Z,36.00
2022-10-11T00:26:06.438Z,33.90
2022-10-11T00:28:35.158Z,35.10
2022-10-11T00:31:06.688Z,44.00
2022-10-11T00:33:35.661Z,38.10
2022-10-11T00:36:04.796Z,42.80
2022-10-11T00:38:32.877Z,35.90
2022-10-11T00:41:01.299Z,23.50
2022-10-11T00:43:31.133Z,47.00
2022-10-11T00:46:03.199Z,66.60
2022-10-11T00:48:44.745Z,57.90
2022-10-11T00:51:26.061Z,46.40
2022-10-11T00:53:54.163Z,33.40
2022-10-11T00:56:29.649Z,29.30
2022-10-11T00:59:01.429Z,43.20
2022-10-11T01:01:29.298Z,49.30
2022-10-11T01:03:57.699Z,36.10
2022-10-11T01:06:25.869Z,33.50
2022-10-11T01:08:53.660Z,33.80
2022-10-11T01:11:24.273Z,31.80
2022-10-11T01:13:52.040Z,38.30
2022-10-11T01:16:27.936Z,34.20
2022-10-11T01:19:17.212Z,33.70
2022-10-11T01:22:03.440Z,47.40
2022-10-11T01:24:52.465Z,48.90
2022-10-11T01:27:41.624Z,44.40
2022-10-11T01:30:21.273Z,41.30
2022-10-11T01:33:10.614Z,35.00
2022-10-11T01:36:16.498Z,43.50
2022-10-11T01:38:46.978Z,41.00
2022-10-11T01:41:22.052Z,43.00
2022-10-11T01:43:53.583Z,35.60
2022-10-11T01:46:21.896Z,45.50
2022-10-11T01:48:55.644Z,44.70
2022-10-11T01:51:29.044Z,43.90
2022-10-11T01:54:35.217Z,49.70
2022-10-11T01:57:34.720Z,44.30
2022-10-11T02:00:03.560Z,62.10
2022-10-11T02:02:46.625Z,59.30
2022-10-11T02:05:26.229Z,41.70
2022-10-11T02:08:07.383Z,55.00
2022-10-11T02:10:42.737Z,37.00
2022-10-11T02:15:52.412Z,37.20
2022-10-11T02:18:26.053Z,45.10
2022-10-11T02:20:57.452Z,43.90
2022-10-11T02:23:34.825Z,44.60
2022-10-11T02:26:06.650Z,33.30
2022-10-11T02:28:38.272Z,48.20
2022-10-11T02:31:08.306Z,40.10
2022-10-11T02:33:43.182Z,51.60
2022-10-11T02:36:20.735Z,36.80
2022-10-11T02:38:53.040Z,57.70
2022-10-11T02:41:31.235Z,40.30
2022-10-11T02:44:09.681Z,43.20
2022-10-11T02:46:39.720Z,55.50
2022-10-11T02:49:08.767Z,41.70
2022-10-11T02:51:36.825Z,50.80
2022-10-11T02:54:05.041Z,38.30
2022-10-11T02:56:32.994Z,42.80
2022-10-11T02:59:00.961Z,39.30
2022-10-11T03:01:28.848Z,42.30
2022-10-11T03:03:56.881Z,51.00
2022-10-11T03:06:24.746Z,45.60
2022-10-11T03:08:52.703Z,39.40
2022-10-11T03:11:20.683Z,47.80
2022-10-11T03:13:48.787Z,47.70
2022-10-11T03:16:16.900Z,46.60
2022-10-11T03:18:44.943Z,48.70
2022-10-11T03:21:12.830Z,84.40
2022-10-11T03:23:40.703Z,77.20
2022-10-11T03:26:09.202Z,86.10
2022-10-11T03:28:37.360Z,73.70
2022-10-11T03:31:05.624Z,68.70
2022-10-11T03:33:33.663Z,58.30
2022-10-11T03:36:01.946Z,73.20
2022-10-11T03:38:30.213Z,49.40
2022-10-11T03:40:58.090Z,72.80
2022-10-11T03:43:26.454Z,56.10
2022-10-11T03:45:54.226Z,59.40
2022-10-11T03:48:22.166Z,80.40
2022-10-11T03:50:50.072Z,71.50
2022-10-11T03:53:18.055Z,76.00
2022-10-11T03:55:45.896Z,54.00
2022-10-11T03:58:13.871Z,75.60
2022-10-11T04:00:41.692Z,75.20
2022-10-11T04:03:09.582Z,110.20
2022-10-11T04:05:37.491Z,76.60
2022-10-11T04:08:08.508Z,107.10
2022-10-11T04:10:40.161Z,74.80
2022-10-11T04:13:11.032Z,95.50
2022-10-11T04:15:39.749Z,98.50
2022-10-11T04:18:08.234Z,109.20
2022-10-11T04:20:36.654Z,110.10
2022-10-11T04:23:04.518Z,114.00
2022-10-11T04:25:32.383Z,128.80
2022-10-11T04:28:00.252Z,125.30
2022-10-11T04:30:28.166Z,125.30
2022-10-11T04:32:56.132Z,129.70
2022-10-11T04:35:24.000Z,120.40
2022-10-11T04:37:51.862Z,126.60
2022-10-11T04:40:20.083Z,125.00
2022-10-11T04:42:48.095Z,132.60
2022-10-11T04:45:16.529Z,134.00
2022-10-11T04:47:44.430Z,134.80
2022-10-11T04:50:12.312Z,140.10
2022-10-11T04:52:40.164Z,128.30
2022-10-11T04:55:09.046Z,130.10
2022-10-11T04:57:37.778Z,168.30
2022-10-11T05:00:06.121Z,121.10
2022-10-11T05:02:34.515Z,116.00
2022-10-11T05:05:02.533Z,104.30
2022-10-11T05:07:30.766Z,104.30
2022-10-11T05:09:59.263Z,102.70
2022-10-11T05:12:27.836Z,124.50
2022-10-11T05:14:55.984Z,154.60
2022-10-11T05:17:23.921Z,147.00
2022-10-11T05:19:53.016Z,167.30
2022-10-11T05:22:21.118Z,170.20
2022-10-11T05:24:49.055Z,120.90
2022-10-11T05:27:17.079Z,119.10
2022-10-11T05:29:44.939Z,82.70
2022-10-11T05:32:12.895Z,73.30
2022-10-11T05:34:41.006Z,60.90
2022-10-11T05:37:09.020Z,50.70
2022-10-11T05:39:37.731Z,64.90
2022-10-11T05:42:09.767Z,50.70
2022-10-11T05:44:38.637Z,37.10
2022-10-11T05:47:07.094Z,42.10
2022-10-11T05:49:35.250Z,51.30
2022-10-11T05:52:03.293Z,55.60
2022-10-11T05:54:32.554Z,53.60
2022-10-11T05:57:00.819Z,47.50
2022-10-11T05:59:29.179Z,48.90
2022-10-11T06:01:57.353Z,44.80
2022-10-11T06:04:25.638Z,52.00
2022-10-11T06:06:54.079Z,32.30
2022-10-11T06:09:22.663Z,43.80
2022-10-11T06:11:50.917Z,62.20
2022-10-11T06:14:20.173Z,44.10
2022-10-11T06:16:48.211Z,43.80
2022-10-11T06:19:16.614Z,51.30
2022-10-11T06:21:46.114Z,39.20
2022-10-11T06:24:14.817Z,42.90
2022-10-11T06:26:42.902Z,51.70
2022-10-11T06:29:11.127Z,47.90
2022-10-11T06:31:39.424Z,59.00
2022-10-11T06:34:07.855Z,41.00
2022-10-11T06:36:36.308Z,44.20
2022-10-11T06:39:04.556Z,55.20
2022-10-11T06:41:32.665Z,49.30
2022-10-11T06:44:00.668Z,42.40
2022-10-11T06:46:32.467Z,47.40
2022-10-11T06:49:00.446Z,54.10
2022-10-11T06:51:30.354Z,54.40
2022-10-11T06:54:00.108Z,41.50
2022-10-11T06:56:31.348Z,46.60
2022-10-11T06:59:00.007Z,52.30
2022-10-11T07:01:29.367Z,47.30
2022-10-11T07:03:58.867Z,48.40
2022-10-11T07:06:29.466Z,53.40
2022-10-11T07:09:02.002Z,47.80
2022-10-11T07:11:30.885Z,44.50
2022-10-11T07:14:01.730Z,41.10
2022-10-11T07:16:30.587Z,44.30
2022-10-11T07:19:01.557Z,37.00
2022-10-11T07:21:32.158Z,33.50
2022-10-11T07:24:01.241Z,35.10
2022-10-11T07:26:35.304Z,31.50
2022-10-11T07:29:07.939Z,29.10
2022-10-11T07:31:38.349Z,26.10
2022-10-11T07:34:06.988Z,24.40
2022-10-11T07:36:35.455Z,29.60
2022-10-11T07:39:06.151Z,24.40
2022-10-11T07:41:34.697Z,30.00
2022-10-11T07:44:03.425Z,35.00
2022-10-11T07:46:32.238Z,37.00
2022-10-11T07:49:00.329Z,34.10
2022-10-11T07:51:28.819Z,31.50
2022-10-11T07:53:57.517Z,27.20
2022-10-11T07:56:28.344Z,26.80
2022-10-11T07:58:59.135Z,33.10
2022-10-11T08:01:28.766Z,22.60
2022-10-11T08:03:57.947Z,26.60
2022-10-11T08:06:30.681Z,30.90
2022-10-11T08:09:01.171Z,21.60
2022-10-11T08:11:32.466Z,23.20
2022-10-11T08:14:01.869Z,28.60
2022-10-11T08:16:30.179Z,32.10
2022-10-11T08:18:59.358Z,22.30
2022-10-11T08:21:27.972Z,21.20
2022-10-11T08:23:57.142Z,33.80
2022-10-11T08:26:25.343Z,24.00
2022-10-11T08:28:53.896Z,28.20
2022-10-11T08:31:22.116Z,22.60
2022-10-11T08:33:50.237Z,30.80
2022-10-11T08:36:18.279Z,23.60
2022-10-11T08:38:46.441Z,28.40
2022-10-11T08:41:45.605Z,23.60
2022-10-11T08:44:13.692Z,29.50
2022-10-11T08:46:47.916Z,30.30
2022-10-11T08:49:20.044Z,28.10
2022-10-11T08:51:53.374Z,27.70
2022-10-11T08:54:36.117Z,32.60
2022-10-11T08:57:10.053Z,32.10
2022-10-11T08:59:55.962Z,32.20
2022-10-11T09:03:06.526Z,38.40
2022-10-11T09:06:01.035Z,39.80
2022-10-11T09:08:41.211Z,41.00
2022-10-11T09:11:31.131Z,38.10
2022-10-11T09:13:59.471Z,34.10
2022-10-11T09:17:07.524Z,35.60
2022-10-11T09:19:52.524Z,41.30
2022-10-11T09:22:20.687Z,35.40
2022-10-11T09:24:59.143Z,30.70
2022-10-11T09:28:01.192Z,32.90
2022-10-11T09:30:27.567Z,28.20
2022-10-11T09:33:14.937Z,25.40
2022-10-11T09:35:48.440Z,26.30
2022-10-11T09:38:40.066Z,40.50
2022-10-11T09:41:12.111Z,30.20
2022-10-11T09:43:40.491Z,37.30
2022-10-11T09:46:36.278Z,34.60
2022-10-11T09:51:37.896Z,33.50
2022-10-11T09:54:07.150Z,36.00
2022-10-11T09:56:42.438Z,30.80
2022-10-11T09:59:29.624Z,32.80
2022-10-11T10:02:19.946Z,29.50
2022-10-11T10:05:03.591Z,36.10
2022-10-11T10:07:35.750Z,31.20
2022-10-11T10:10:26.812Z,31.90
2022-10-11T10:13:01.601Z,33.60
2022-10-11T10:15:38.429Z,36.80
2022-10-11T10:18:10.715Z,29.00
2022-10-11T10:20:39.394Z,33.40
2022-10-11T10:23:22.666Z,30.70
2022-10-11T10:25:51.890Z,33.70
2022-10-11T10:28:26.328Z,35.20
2022-10-11T10:30:59.270Z,31.70
2022-10-11T10:33:33.596Z,29.30
2022-10-11T10:36:13.505Z,32.80
2022-10-11T10:38:52.449Z,26.10
2022-10-11T10:41:20.794Z,34.00
2022-10-11T10:43:56.011Z,28.30
2022-10-11T10:49:53.989Z,24.80
2022-10-11T10:52:44.227Z,29.30
2022-10-11T10:55:45.361Z,34.50
2022-10-11T10:58:25.921Z,29.00
2022-10-11T11:01:00.020Z,31.70
2022-10-11T11:03:57.257Z,25.40
2022-10-11T11:06:53.399Z,26.00
2022-10-11T11:09:56.738Z,28.50
2022-10-11T11:12:34.371Z,26.80
2022-10-11T11:15:38.099Z,28.40
2022-10-11T11:18:26.016Z,24.60
2022-10-11T11:21:13.004Z,39.00
2022-10-11T11:23:56.436Z,32.50
2022-10-11T11:26:30.485Z,31.80
2022-10-11T11:29:04.942Z,28.30
2022-10-11T11:32:04.052Z,22.90
2022-10-11T11:34:42.085Z,26.30
2022-10-11T11:37:39.007Z,23.40
2022-10-11T11:40:14.059Z,23.40
2022-10-11T11:45:45.765Z,26.50
2022-10-11T11:48:20.882Z,26.00
2022-10-11T11:51:13.120Z,26.40
2022-10-11T11:53:49.700Z,25.90
2022-10-11T11:56:41.015Z,29.00
2022-10-11T11:59:21.355Z,21.00
2022-10-11T12:01:58.202Z,25.70
2022-10-11T12:04:37.340Z,25.00
2022-10-11T12:07:16.479Z,25.60
2022-10-11T12:09:54.929Z,23.70
2022-10-11T12:12:34.150Z,25.40
2022-10-11T12:15:20.630Z,22.80
2022-10-11T12:17:55.744Z,25.10
2022-10-11T12:20:32.994Z,26.60
2022-10-11T12:23:04.155Z,34.60
2022-10-11T12:25:37.195Z,26.90
2022-10-11T12:28:43.689Z,31.10
2022-10-11T12:31:21.195Z,35.70
2022-10-11T12:34:14.767Z,29.70
2022-10-11T12:36:49.873Z,32.40
2022-10-11T12:41:50.571Z,27.30
2022-10-11T12:44:18.886Z,30.10
2022-10-11T12:46:57.743Z,23.70
2022-10-11T12:49:38.018Z,25.50
2022-10-11T12:52:34.165Z,38.30
2022-10-11T12:55:05.413Z,35.50
2022-10-11T12:57:56.610Z,29.00
2022-10-11T13:00:34.707Z,30.20
2022-10-11T13:03:21.705Z,26.60
2022-10-11T13:05:53.766Z,27.90
2022-10-11T13:08:30.827Z,26.40
2022-10-11T13:11:03.501Z,31.60
2022-10-11T13:13:40.518Z,26.20
2022-10-11T13:16:14.601Z,20.70
2022-10-11T13:18:45.623Z,18.40
2022-10-11T13:21:30.096Z,22.30
2022-10-11T13:24:01.032Z,18.90
2022-10-11T13:26:31.445Z,17.70
2022-10-11T13:29:01.013Z,20.40
2022-10-11T13:31:29.224Z,21.50
2022-10-11T13:33:59.336Z,22.60
2022-10-11T13:36:27.901Z,19.80
2022-10-11T13:38:59.493Z,26.80
2022-10-11T13:41:30.858Z,19.60
2022-10-11T13:44:00.527Z,16.20
2022-10-11T13:46:31.123Z,19.00
2022-10-11T13:49:26.321Z,16.60
2022-10-11T13:52:03.272Z,22.40
2022-10-11T13:54:54.807Z,23.10
2022-10-11T13:57:33.906Z,17.30
2022-10-11T14:00:07.829Z,21.40
2022-10-11T14:02:47.088Z,18.00
2022-10-11T14:05:26.386Z,20.40
2022-10-11T14:07:54.923Z,26.20
2022-10-11T14:10:24.081Z,19.30
2022-10-11T14:13:22.181Z,24.40
2022-10-11T14:16:20.414Z,21.00
2022-10-11T14:18:59.005Z,12.30
2022-10-11T14:21:47.810Z,19.70
2022-10-11T14:24:17.890Z,18.10
2022-10-11T14:26:49.729Z,21.40
2022-10-11T14:29:24.972Z,19.80
2022-10-11T14:31:59.450Z,20.10
2022-10-11T14:34:28.209Z,20.20
2022-10-11T14:36:56.613Z,22.00
2022-10-11T14:39:27.860Z,23.30
2022-10-11T14:41:55.990Z,17.60
2022-10-11T14:44:24.728Z,17.90
2022-10-11T14:46:54.837Z,20.30
2022-10-11T14:49:29.124Z,16.70
2022-10-11T14:51:58.839Z,22.00
2022-10-11T14:54:29.564Z,21.30
2022-10-11T14:57:00.838Z,23.60
2022-10-11T14:59:37.035Z,21.70
2022-10-11T15:02:07.377Z,24.40
2022-10-11T15:04:35.866Z,28.80
2022-10-11T15:07:04.728Z,24.50
2022-10-11T15:09:32.999Z,21.20
2022-10-11T15:12:00.988Z,25.00
2022-10-11T15:14:29.002Z,17.80
2022-10-11T15:16:57.119Z,27.90
2022-10-11T15:19:25.751Z,20.00
2022-10-11T15:21:53.824Z,26.40
2022-10-11T15:24:22.205Z,24.70
2022-10-11T15:26:50.572Z,18.80
2022-10-11T15:29:19.310Z,26.20
2022-10-11T15:31:47.176Z,21.80
2022-10-11T15:34:15.298Z,24.00
2022-10-11T15:36:43.151Z,29.20
2022-10-11T15:39:33.940Z,24.60
2022-10-11T15:42:01.931Z,23.20
2022-10-11T15:44:29.986Z,19.00
2022-10-11T15:46:58.407Z,26.30
2022-10-11T15:49:26.469Z,23.00
2022-10-11T15:51:54.467Z,23.00
2022-10-11T15:54:22.394Z,23.10
2022-10-11T15:56:50.261Z,19.50
2022-10-11T15:59:18.070Z,20.40
2022-10-11T16:01:47.068Z,21.20
2022-10-11T16:04:14.887Z,27.70
2022-10-11T16:06:42.872Z,23.10
2022-10-11T16:09:10.802Z,27.40
2022-10-11T16:11:38.753Z,24.70
2022-10-11T16:14:06.784Z,27.10
2022-10-11T16:16:34.780Z,27.90
2022-10-11T16:19:02.832Z,30.40
2022-10-11T16:21:30.732Z,33.40
2022-10-11T16:23:58.862Z,35.80
2022-10-11T16:26:27.192Z,28.20
2022-10-11T16:28:56.759Z,38.60
2022-10-11T16:31:24.870Z,38.90
2022-10-11T16:33:53.116Z,34.00
2022-10-11T16:36:32.560Z,36.60
2022-10-11T16:39:02.196Z,37.10
2022-10-11T16:41:29.986Z,39.90
2022-10-11T16:43:57.938Z,40.80
2022-10-11T16:46:25.887Z,29.50
2022-10-11T16:48:58.523Z,33.40
2022-10-11T16:51:26.672Z,34.00
2022-10-11T16:53:54.522Z,28.50
2022-10-11T16:56:25.245Z,34.30
2022-10-11T16:58:54.403Z,29.80
2022-10-11T17:01:23.169Z,35.20
2022-10-11T17:03:52.039Z,34.60
2022-10-11T17:06:20.073Z,34.40
2022-10-11T17:08:48.006Z,28.90
2022-10-11T17:11:17.751Z,35.50
2022-10-11T17:13:46.237Z,33.50
2022-10-11T17:16:15.248Z,31.70
2022-10-11T17:18:43.985Z,39.10
2022-10-11T17:21:15.097Z,34.80
2022-10-11T17:23:44.048Z,39.70
2022-10-11T17:26:18.730Z,35.80
2022-10-11T17:28:47.808Z,37.60
2022-10-11T17:31:15.923Z,38.30
2022-10-11T17:33:44.259Z,41.00
2022-10-11T17:36:36.556Z,35.70
2022-10-11T17:39:07.464Z,33.60
2022-10-11T17:41:35.827Z,31.50
2022-10-11T17:44:05.530Z,33.30
2022-10-11T17:46:35.103Z,26.10
2022-10-11T17:49:05.319Z,30.90
2022-10-11T17:51:35.947Z,30.70
2022-10-11T17:54:04.755Z,29.10
2022-10-11T17:56:37.706Z,34.00
2022-10-11T17:59:07.324Z,32.10
2022-10-11T18:01:36.339Z,32.00
2022-10-11T18:04:06.190Z,28.50
2022-10-11T18:06:39.027Z,30.10
2022-10-11T18:09:06.971Z,37.10
2022-10-11T18:11:35.507Z,34.70
2022-10-11T18:14:05.261Z,32.60
2022-10-11T18:16:33.796Z,31.90
2022-10-11T18:19:03.695Z,33.50
2022-10-11T18:21:34.631Z,35.60
2022-10-11T18:24:05.623Z,35.20
2022-10-11T18:26:34.464Z,32.20
2022-10-11T18:29:02.536Z,31.00
2022-10-11T18:31:33.866Z,33.50
2022-10-11T18:34:03.787Z,35.10
2022-10-11T18:36:32.832Z,35.10
2022-10-11T18:39:03.821Z,34.00
2022-10-11T18:41:33.739Z,36.60
2022-10-11T18:44:04.774Z,35.20
2022-10-11T18:46:33.164Z,41.50
2022-10-11T18:49:02.293Z,37.40
2022-10-11T18:51:38.074Z,41.50
2022-10-11T18:54:07.514Z,34.60
2022-10-11T18:56:37.133Z,44.10
2022-10-11T18:59:06.566Z,41.90
2022-10-11T19:01:38.409Z,44.20
2022-10-11T19:04:08.946Z,34.40
2022-10-11T19:06:43.320Z,38.20
2022-10-11T19:09:14.483Z,35.20
2022-10-11T19:11:42.346Z,40.50
2022-10-11T19:14:14.896Z,35.80
2022-10-11T19:16:46.356Z,36.60
2022-10-11T19:19:14.124Z,33.10
2022-10-11T19:21:42.250Z,37.90
2022-10-11T19:24:10.026Z,29.10
2022-10-11T19:26:40.471Z,47.00
2022-10-11T19:29:19.035Z,35.20
2022-10-11T19:31:53.670Z,39.60
2022-10-11T19:34:23.868Z,40.40
2022-10-11T19:36:53.452Z,38.10
2022-10-11T19:39:22.863Z,42.90
2022-10-11T19:41:51.262Z,37.40
2022-10-11T19:44:19.409Z,44.20
2022-10-11T19:46:51.966Z,36.50
2022-10-11T19:49:26.012Z,33.00
2022-10-11T19:51:55.712Z,42.60
2022-10-11T19:54:24.143Z,39.70
2022-10-11T19:56:52.805Z,41.50
2022-10-11T19:59:20.677Z,43.90
2022-10-11T20:01:52.720Z,46.00
2022-10-11T20:07:10.005Z,44.60
2022-10-11T20:09:37.872Z,39.10
2022-10-11T20:12:05.921Z,47.90
2022-10-11T20:14:33.790Z,52.40
2022-10-11T20:17:01.617Z,49.90
2022-10-11T20:19:31.074Z,48.40
2022-10-11T20:22:01.097Z,40.20
2022-10-11T20:24:33.325Z,43.60
2022-10-11T20:27:06.503Z,41.80
2022-10-11T20:29:34.724Z,51.90
2022-10-11T20:32:02.676Z,39.60
2022-10-11T20:34:30.739Z,42.20
2022-10-11T20:36:59.382Z,41.70
2022-10-11T20:39:27.161Z,39.20
2022-10-11T20:41:55.170Z,38.80
2022-10-11T20:44:23.029Z,40.20
2022-10-11T20:46:50.856Z,44.10
2022-10-11T20:49:20.122Z,37.90
2022-10-11T20:51:48.733Z,43.40
2022-10-11T20:54:17.145Z,43.20
2022-10-11T20:56:45.009Z,49.20
2022-10-11T20:59:12.842Z,36.80
2022-10-11T21:01:42.322Z,51.70
2022-10-11T21:04:17.858Z,46.60
2022-10-11T21:09:16.408Z,38.60
2022-10-11T21:11:45.673Z,32.80
2022-10-11T21:14:14.041Z,36.50
2022-10-11T21:16:42.159Z,36.00
2022-10-11T21:19:14.134Z,33.80
2022-10-11T21:21:43.224Z,40.70
2022-10-11T21:24:10.975Z,33.40
2022-10-11T21:26:39.166Z,35.80
2022-10-11T21:29:08.336Z,38.20
2022-10-11T21:31:36.458Z,41.80
2022-10-11T21:34:05.285Z,42.40
2022-10-11T21:36:33.703Z,39.50
2022-10-11T21:39:01.692Z,40.80
2022-10-11T21:41:30.328Z,39.80
2022-10-11T21:43:58.593Z,48.40
2022-10-11T21:46:54.210Z,44.60
2022-10-11T21:49:16.780Z,41.30
2022-10-11T21:51:45.216Z,39.50
2022-10-11T21:54:13.018Z,43.60
2022-10-11T21:56:40.827Z,44.60
2022-10-11T21:59:12.084Z,36.30
2022-10-11T22:01:41.850Z,42.70
2022-10-11T22:04:11.003Z,42.20
2022-10-11T22:06:40.491Z,41.40
2022-10-11T22:09:08.999Z,37.60
2022-10-11T22:11:37.717Z,40.80
2022-10-11T22:14:05.739Z,40.70
2022-10-11T22:16:34.987Z,39.90
2022-10-11T22:19:02.871Z,36.80
2022-10-11T22:21:30.986Z,51.30
2022-10-11T22:23:58.805Z,46.90
2022-10-11T22:26:32.330Z,47.10
2022-10-11T22:29:00.695Z,47.10
2022-10-11T22:31:30.114Z,42.20
2022-10-11T22:34:00.225Z,44.70
2022-10-11T22:36:30.641Z,40.30
2022-10-11T22:38:59.170Z,35.70
2022-10-11T22:41:27.002Z,42.90
2022-10-11T22:43:54.768Z,33.60
2022-10-11T22:46:22.562Z,34.90
2022-10-11T22:48:50.248Z,35.10
2022-10-11T22:51:18.127Z,38.40
2022-10-11T22:53:45.881Z,39.90
2022-10-11T22:56:13.894Z,35.10
2022-10-11T22:58:41.700Z,34.90
2022-10-11T23:01:12.068Z,40.50
2022-10-11T23:03:40.036Z,33.30
2022-10-11T23:06:08.552Z,40.20
2022-10-11T23:08:36.381Z,32.50
2022-10-11T23:11:06.316Z,36.70
2022-10-11T23:13:35.048Z,41.20
2022-10-11T23:16:11.193Z,31.10
2022-10-11T23:18:39.221Z,32.60
2022-10-11T23:21:07.886Z,34.00
2022-10-11T23:23:35.947Z,34.10
2022-10-11T23:26:10.580Z,31.90
2022-10-11T23:28:38.837Z,26.40
2022-10-11T23:31:13.053Z,28.20
2022-10-11T23:33:40.913Z,30.70
2022-10-11T23:36:26.762Z,30.10
2022-10-11T23:41:26.545Z,28.10
2022-10-11T23:43:54.411Z,31.30
2022-10-11T23:46:22.436Z,24.20
2022-10-11T23:48:50.199Z,27.00
2022-10-11T23:51:18.068Z,26.70
2022-10-11T23:53:45.810Z,27.90
2022-10-11T23:56:13.534Z,32.60
2022-10-11T23:58:41.472Z,34.30
